sensor_id;sensor_type;location;lat;lon;timestamp;P1;durP1;ratioP1;P2;durP2;ratioP2
19434;SDS011;9853;50.848;4.108;2022-10-16T00:01:41;3.67;;;1.02;;
19434;SDS011;9853;50.848;4.108;2022-10-16T00:03:43;5.43;;;1.20;;
19434;SDS011;9853;50.848;4.108;2022-10-16T00:05:45;2.22;;;0.80;;
19434;SDS011;9853;50.848;4.108;2022-10-16T00:07:45;3.58;;;0.88;;
19434;SDS011;9853;50.848;4.108;2022-10-16T00:09:46;2.03;;;1.05;;
19434;SDS011;9853;50.848;4.108;2022-10-16T00:11:47;2.47;;;1.00;;
19434;SDS011;9853;50.848;4.108;2022-10-16T00:13:48;4.15;;;1.00;;
19434;SDS011;9853;50.848;4.108;2022-10-16T00:15:50;2.05;;;0.90;;
19434;SDS011;9853;50.848;4.108;2022-10-16T00:17:51;5.55;;;0.80;;
19434;SDS011;9853;50.848;4.108;2022-10-16T00:19:51;5.80;;;0.90;;
19434;SDS011;9853;50.848;4.108;2022-10-16T00:21:52;1.45;;;0.93;;
19434;SDS011;9853;50.848;4.108;2022-10-16T00:23:53;3.13;;;1.05;;
19434;SDS011;9853;50.848;4.108;2022-10-16T00:26:03;4.22;;;0.90;;
19434;SDS011;9853;50.848;4.108;2022-10-16T00:28:06;3.40;;;0.90;;
19434;SDS011;9853;50.848;4.108;2022-10-16T00:30:06;3.60;;;0.88;;
19434;SDS011;9853;50.848;4.108;2022-10-16T00:32:08;4.80;;;0.90;;
19434;SDS011;9853;50.848;4.108;2022-10-16T00:34:09;2.28;;;1.00;;
19434;SDS011;9853;50.848;4.108;2022-10-16T00:36:10;3.22;;;0.80;;
19434;SDS011;9853;50.848;4.108;2022-10-16T00:38:13;3.53;;;0.80;;
19434;SDS011;9853;50.848;4.108;2022-10-16T00:40:14;1.63;;;0.68;;
19434;SDS011;9853;50.848;4.108;2022-10-16T00:42:16;3.85;;;0.77;;
19434;SDS011;9853;50.848;4.108;2022-10-16T00:46:52;2.60;;;0.90;;
19434;SDS011;9853;50.848;4.108;2022-10-16T00:51:00;1.75;;;0.85;;
19434;SDS011;9853;50.848;4.108;2022-10-16T00:53:01;1.40;;;0.50;;
19434;SDS011;9853;50.848;4.108;2022-10-16T00:55:03;1.70;;;0.80;;
19434;SDS011;9853;50.848;4.108;2022-10-16T00:57:06;3.35;;;1.13;;
19434;SDS011;9853;50.848;4.108;2022-10-16T00:59:11;5.72;;;0.93;;
19434;SDS011;9853;50.848;4.108;2022-10-16T01:01:16;3.63;;;1.20;;
19434;SDS011;9853;50.848;4.108;2022-10-16T01:03:24;2.45;;;1.00;;
19434;SDS011;9853;50.848;4.108;2022-10-16T01:05:41;1.80;;;0.80;;
19434;SDS011;9853;50.848;4.108;2022-10-16T01:07:54;5.25;;;1.23;;
19434;SDS011;9853;50.848;4.108;2022-10-16T01:13:01;1.90;;;0.90;;
19434;SDS011;9853;50.848;4.108;2022-10-16T01:15:11;2.50;;;0.90;;
19434;SDS011;9853;50.848;4.108;2022-10-16T01:22:08;2.55;;;0.95;;
19434;SDS011;9853;50.848;4.108;2022-10-16T01:24:17;2.05;;;0.90;;
19434;SDS011;9853;50.848;4.108;2022-10-16T01:29:11;3.17;;;1.20;;
19434;SDS011;9853;50.848;4.108;2022-10-16T01:31:29;3.63;;;1.00;;
19434;SDS011;9853;50.848;4.108;2022-10-16T01:33:43;2.00;;;1.10;;
19434;SDS011;9853;50.848;4.108;2022-10-16T01:35:50;1.73;;;1.13;;
19434;SDS011;9853;50.848;4.108;2022-10-16T01:38:06;2.72;;;1.25;;
19434;SDS011;9853;50.848;4.108;2022-10-16T01:40:13;2.70;;;0.90;;
19434;SDS011;9853;50.848;4.108;2022-10-16T01:42:18;4.20;;;1.13;;
19434;SDS011;9853;50.848;4.108;2022-10-16T01:44:28;2.65;;;1.00;;
19434;SDS011;9853;50.848;4.108;2022-10-16T01:46:31;2.35;;;1.13;;
19434;SDS011;9853;50.848;4.108;2022-10-16T01:48:33;2.00;;;1.10;;
19434;SDS011;9853;50.848;4.108;2022-10-16T01:50:37;6.60;;;1.17;;
19434;SDS011;9853;50.848;4.108;2022-10-16T01:52:41;2.72;;;1.10;;
19434;SDS011;9853;50.848;4.108;2022-10-16T01:54:46;2.35;;;1.02;;
19434;SDS011;9853;50.848;4.108;2022-10-16T01:56:49;2.40;;;1.30;;
19434;SDS011;9853;50.848;4.108;2022-10-16T01:59:09;1.63;;;0.90;;
19434;SDS011;9853;50.848;4.108;2022-10-16T02:01:14;8.18;;;1.17;;
19434;SDS011;9853;50.848;4.108;2022-10-16T02:03:19;3.85;;;0.98;;
19434;SDS011;9853;50.848;4.108;2022-10-16T02:07:24;3.70;;;1.17;;
19434;SDS011;9853;50.848;4.108;2022-10-16T02:09:25;4.35;;;0.98;;
19434;SDS011;9853;50.848;4.108;2022-10-16T02:11:26;5.70;;;1.30;;
19434;SDS011;9853;50.848;4.108;2022-10-16T02:13:34;4.30;;;1.10;;
19434;SDS011;9853;50.848;4.108;2022-10-16T02:15:53;4.10;;;1.17;;
19434;SDS011;9853;50.848;4.108;2022-10-16T02:17:54;3.13;;;0.93;;
19434;SDS011;9853;50.848;4.108;2022-10-16T02:19:56;1.63;;;1.00;;
19434;SDS011;9853;50.848;4.108;2022-10-16T02:21:59;2.60;;;1.30;;
19434;SDS011;9853;50.848;4.108;2022-10-16T02:26:15;3.50;;;1.50;;
19434;SDS011;9853;50.848;4.108;2022-10-16T02:28:22;4.47;;;1.20;;
19434;SDS011;9853;50.848;4.108;2022-10-16T02:33:04;2.67;;;0.95;;
19434;SDS011;9853;50.848;4.108;2022-10-16T02:35:07;3.00;;;1.15;;
19434;SDS011;9853;50.848;4.108;2022-10-16T02:37:09;1.95;;;1.17;;
19434;SDS011;9853;50.848;4.108;2022-10-16T02:39:10;2.45;;;1.27;;
19434;SDS011;9853;50.848;4.108;2022-10-16T02:41:11;2.67;;;1.02;;
19434;SDS011;9853;50.848;4.108;2022-10-16T02:43:12;3.72;;;1.20;;
19434;SDS011;9853;50.848;4.108;2022-10-16T02:45:13;1.70;;;1.25;;
19434;SDS011;9853;50.848;4.108;2022-10-16T02:47:14;2.58;;;1.20;;
19434;SDS011;9853;50.848;4.108;2022-10-16T02:49:15;8.85;;;1.35;;
19434;SDS011;9853;50.848;4.108;2022-10-16T02:51:15;5.85;;;1.60;;
19434;SDS011;9853;50.848;4.108;2022-10-16T02:53:16;2.00;;;1.00;;
19434;SDS011;9853;50.848;4.108;2022-10-16T02:55:17;2.90;;;1.30;;
19434;SDS011;9853;50.848;4.108;2022-10-16T02:57:18;2.25;;;1.08;;
19434;SDS011;9853;50.848;4.108;2022-10-16T02:59:19;3.47;;;1.40;;
19434;SDS011;9853;50.848;4.108;2022-10-16T03:01:22;4.10;;;1.05;;
19434;SDS011;9853;50.848;4.108;2022-10-16T03:03:23;2.88;;;1.10;;
19434;SDS011;9853;50.848;4.108;2022-10-16T03:05:24;4.10;;;1.27;;
19434;SDS011;9853;50.848;4.108;2022-10-16T03:07:25;2.80;;;1.85;;
19434;SDS011;9853;50.848;4.108;2022-10-16T03:09:26;3.55;;;1.20;;
19434;SDS011;9853;50.848;4.108;2022-10-16T03:11:26;5.30;;;1.27;;
19434;SDS011;9853;50.848;4.108;2022-10-16T03:13:28;2.58;;;1.27;;
19434;SDS011;9853;50.848;4.108;2022-10-16T03:15:28;4.38;;;1.30;;
19434;SDS011;9853;50.848;4.108;2022-10-16T03:17:29;3.92;;;1.45;;
19434;SDS011;9853;50.848;4.108;2022-10-16T03:19:31;7.90;;;1.60;;
19434;SDS011;9853;50.848;4.108;2022-10-16T03:21:32;4.88;;;1.40;;
19434;SDS011;9853;50.848;4.108;2022-10-16T03:23:33;4.30;;;1.35;;
19434;SDS011;9853;50.848;4.108;2022-10-16T03:25:33;5.70;;;3.05;;
19434;SDS011;9853;50.848;4.108;2022-10-16T03:27:34;2.65;;;1.48;;
19434;SDS011;9853;50.848;4.108;2022-10-16T03:29:35;5.20;;;1.70;;
19434;SDS011;9853;50.848;4.108;2022-10-16T03:31:35;6.57;;;1.70;;
19434;SDS011;9853;50.848;4.108;2022-10-16T03:33:36;3.58;;;1.40;;
19434;SDS011;9853;50.848;4.108;2022-10-16T03:35:37;4.30;;;1.88;;
19434;SDS011;9853;50.848;4.108;2022-10-16T03:37:37;5.68;;;1.45;;
19434;SDS011;9853;50.848;4.108;2022-10-16T03:39:38;4.85;;;1.63;;
19434;SDS011;9853;50.848;4.108;2022-10-16T03:41:39;5.18;;;1.45;;
19434;SDS011;9853;50.848;4.108;2022-10-16T03:43:39;5.55;;;1.23;;
19434;SDS011;9853;50.848;4.108;2022-10-16T03:45:40;3.90;;;1.40;;
19434;SDS011;9853;50.848;4.108;2022-10-16T03:47:41;6.45;;;1.25;;
19434;SDS011;9853;50.848;4.108;2022-10-16T03:49:41;5.30;;;1.30;;
19434;SDS011;9853;50.848;4.108;2022-10-16T03:51:42;5.20;;;1.63;;
19434;SDS011;9853;50.848;4.108;2022-10-16T03:53:43;5.20;;;1.45;;
19434;SDS011;9853;50.848;4.108;2022-10-16T03:55:44;3.13;;;1.25;;
19434;SDS011;9853;50.848;4.108;2022-10-16T03:57:44;3.42;;;1.40;;
19434;SDS011;9853;50.848;4.108;2022-10-16T03:59:45;4.47;;;1.40;;
19434;SDS011;9853;50.848;4.108;2022-10-16T04:01:46;2.50;;;1.08;;
19434;SDS011;9853;50.848;4.108;2022-10-16T04:03:46;3.63;;;1.20;;
19434;SDS011;9853;50.848;4.108;2022-10-16T04:05:47;4.15;;;1.40;;
19434;SDS011;9853;50.848;4.108;2022-10-16T04:07:48;2.13;;;1.13;;
19434;SDS011;9853;50.848;4.108;2022-10-16T04:09:48;6.53;;;1.52;;
19434;SDS011;9853;50.848;4.108;2022-10-16T04:11:52;5.97;;;1.10;;
19434;SDS011;9853;50.848;4.108;2022-10-16T04:13:52;2.58;;;1.20;;
19434;SDS011;9853;50.848;4.108;2022-10-16T04:15:53;2.95;;;1.25;;
19434;SDS011;9853;50.848;4.108;2022-10-16T04:17:53;3.85;;;1.33;;
19434;SDS011;9853;50.848;4.108;2022-10-16T04:19:54;4.72;;;1.33;;
19434;SDS011;9853;50.848;4.108;2022-10-16T04:21:55;2.85;;;1.30;;
19434;SDS011;9853;50.848;4.108;2022-10-16T04:23:55;1.70;;;1.00;;
19434;SDS011;9853;50.848;4.108;2022-10-16T04:25:56;3.72;;;1.17;;
19434;SDS011;9853;50.848;4.108;2022-10-16T04:27:57;3.78;;;1.38;;
19434;SDS011;9853;50.848;4.108;2022-10-16T04:29:58;4.13;;;1.40;;
19434;SDS011;9853;50.848;4.108;2022-10-16T04:31:59;1.58;;;0.90;;
19434;SDS011;9853;50.848;4.108;2022-10-16T04:34:00;5.20;;;1.20;;
19434;SDS011;9853;50.848;4.108;2022-10-16T04:36:01;6.35;;;1.50;;
19434;SDS011;9853;50.848;4.108;2022-10-16T04:38:03;2.67;;;1.40;;
19434;SDS011;9853;50.848;4.108;2022-10-16T04:40:03;5.30;;;1.20;;
19434;SDS011;9853;50.848;4.108;2022-10-16T04:42:04;3.65;;;1.40;;
19434;SDS011;9853;50.848;4.108;2022-10-16T04:44:05;5.30;;;1.60;;
19434;SDS011;9853;50.848;4.108;2022-10-16T04:46:06;5.60;;;1.20;;
19434;SDS011;9853;50.848;4.108;2022-10-16T04:48:07;6.13;;;1.30;;
19434;SDS011;9853;50.848;4.108;2022-10-16T04:50:08;3.58;;;1.40;;
19434;SDS011;9853;50.848;4.108;2022-10-16T04:52:08;4.00;;;1.50;;
19434;SDS011;9853;50.848;4.108;2022-10-16T04:54:09;5.10;;;1.25;;
19434;SDS011;9853;50.848;4.108;2022-10-16T04:56:10;3.15;;;1.30;;
19434;SDS011;9853;50.848;4.108;2022-10-16T04:58:11;6.72;;;1.40;;
19434;SDS011;9853;50.848;4.108;2022-10-16T05:00:12;4.88;;;1.30;;
19434;SDS011;9853;50.848;4.108;2022-10-16T05:02:13;2.58;;;1.20;;
19434;SDS011;9853;50.848;4.108;2022-10-16T05:04:13;5.97;;;1.40;;
19434;SDS011;9853;50.848;4.108;2022-10-16T05:06:15;8.57;;;1.50;;
19434;SDS011;9853;50.848;4.108;2022-10-16T05:08:15;5.43;;;1.63;;
19434;SDS011;9853;50.848;4.108;2022-10-16T05:10:16;4.95;;;1.50;;
19434;SDS011;9853;50.848;4.108;2022-10-16T05:12:17;3.03;;;1.35;;
19434;SDS011;9853;50.848;4.108;2022-10-16T05:14:18;4.28;;;1.58;;
19434;SDS011;9853;50.848;4.108;2022-10-16T05:16:19;6.13;;;1.60;;
19434;SDS011;9853;50.848;4.108;2022-10-16T05:18:19;5.55;;;1.40;;
19434;SDS011;9853;50.848;4.108;2022-10-16T05:20:20;3.13;;;1.33;;
19434;SDS011;9853;50.848;4.108;2022-10-16T05:22:21;7.55;;;1.30;;
19434;SDS011;9853;50.848;4.108;2022-10-16T05:24:22;3.67;;;1.52;;
19434;SDS011;9853;50.848;4.108;2022-10-16T05:26:23;4.57;;;1.58;;
19434;SDS011;9853;50.848;4.108;2022-10-16T05:28:27;5.55;;;1.58;;
19434;SDS011;9853;50.848;4.108;2022-10-16T05:30:29;5.20;;;1.83;;
19434;SDS011;9853;50.848;4.108;2022-10-16T05:32:29;6.55;;;1.63;;
19434;SDS011;9853;50.848;4.108;2022-10-16T05:34:30;3.78;;;1.63;;
19434;SDS011;9853;50.848;4.108;2022-10-16T05:36:31;7.25;;;1.38;;
19434;SDS011;9853;50.848;4.108;2022-10-16T05:38:31;6.72;;;1.88;;
19434;SDS011;9853;50.848;4.108;2022-10-16T05:40:32;3.50;;;1.60;;
19434;SDS011;9853;50.848;4.108;2022-10-16T05:42:33;4.38;;;1.55;;
19434;SDS011;9853;50.848;4.108;2022-10-16T05:44:34;7.03;;;1.27;;
19434;SDS011;9853;50.848;4.108;2022-10-16T05:46:34;5.00;;;1.58;;
19434;SDS011;9853;50.848;4.108;2022-10-16T05:48:35;7.35;;;1.42;;
19434;SDS011;9853;50.848;4.108;2022-10-16T05:50:35;7.38;;;1.50;;
19434;SDS011;9853;50.848;4.108;2022-10-16T05:52:36;6.80;;;1.65;;
19434;SDS011;9853;50.848;4.108;2022-10-16T05:54:37;7.35;;;1.90;;
19434;SDS011;9853;50.848;4.108;2022-10-16T05:56:37;4.57;;;1.40;;
19434;SDS011;9853;50.848;4.108;2022-10-16T05:58:38;2.78;;;1.52;;
19434;SDS011;9853;50.848;4.108;2022-10-16T06:00:44;6.05;;;1.50;;
19434;SDS011;9853;50.848;4.108;2022-10-16T06:02:44;6.50;;;1.80;;
19434;SDS011;9853;50.848;4.108;2022-10-16T06:04:46;4.75;;;1.65;;
19434;SDS011;9853;50.848;4.108;2022-10-16T06:06:46;3.17;;;1.70;;
19434;SDS011;9853;50.848;4.108;2022-10-16T06:08:47;2.88;;;1.50;;
19434;SDS011;9853;50.848;4.108;2022-10-16T06:10:49;5.03;;;1.55;;
19434;SDS011;9853;50.848;4.108;2022-10-16T06:13:02;6.43;;;1.40;;
19434;SDS011;9853;50.848;4.108;2022-10-16T06:15:02;5.28;;;1.70;;
19434;SDS011;9853;50.848;4.108;2022-10-16T06:17:04;4.78;;;1.65;;
19434;SDS011;9853;50.848;4.108;2022-10-16T06:19:05;6.70;;;1.70;;
19434;SDS011;9853;50.848;4.108;2022-10-16T06:21:08;6.63;;;1.80;;
19434;SDS011;9853;50.848;4.108;2022-10-16T06:23:11;5.30;;;1.50;;
19434;SDS011;9853;50.848;4.108;2022-10-16T06:25:11;6.82;;;1.85;;
19434;SDS011;9853;50.848;4.108;2022-10-16T06:27:12;4.97;;;1.80;;
19434;SDS011;9853;50.848;4.108;2022-10-16T06:29:13;5.30;;;1.77;;
19434;SDS011;9853;50.848;4.108;2022-10-16T06:31:14;4.32;;;1.90;;
19434;SDS011;9853;50.848;4.108;2022-10-16T06:33:16;3.25;;;1.48;;
19434;SDS011;9853;50.848;4.108;2022-10-16T06:35:16;2.50;;;1.40;;
19434;SDS011;9853;50.848;4.108;2022-10-16T06:37:17;4.03;;;1.52;;
19434;SDS011;9853;50.848;4.108;2022-10-16T06:39:18;7.47;;;2.25;;
19434;SDS011;9853;50.848;4.108;2022-10-16T06:41:19;6.10;;;2.22;;
19434;SDS011;9853;50.848;4.108;2022-10-16T06:43:21;4.47;;;1.67;;
19434;SDS011;9853;50.848;4.108;2022-10-16T06:45:22;6.03;;;1.58;;
19434;SDS011;9853;50.848;4.108;2022-10-16T06:47:23;5.78;;;1.75;;
19434;SDS011;9853;50.848;4.108;2022-10-16T06:49:23;4.03;;;1.60;;
19434;SDS011;9853;50.848;4.108;2022-10-16T06:51:24;4.68;;;1.38;;
19434;SDS011;9853;50.848;4.108;2022-10-16T06:53:25;4.10;;;1.40;;
19434;SDS011;9853;50.848;4.108;2022-10-16T06:55:28;8.20;;;1.60;;
19434;SDS011;9853;50.848;4.108;2022-10-16T06:57:29;8.25;;;1.40;;
19434;SDS011;9853;50.848;4.108;2022-10-16T06:59:30;6.32;;;1.50;;
19434;SDS011;9853;50.848;4.108;2022-10-16T07:01:31;2.22;;;1.20;;
19434;SDS011;9853;50.848;4.108;2022-10-16T07:03:32;4.18;;;1.40;;
19434;SDS011;9853;50.848;4.108;2022-10-16T07:05:39;4.28;;;1.63;;
19434;SDS011;9853;50.848;4.108;2022-10-16T07:07:40;8.05;;;1.70;;
19434;SDS011;9853;50.848;4.108;2022-10-16T07:09:41;4.15;;;1.63;;
19434;SDS011;9853;50.848;4.108;2022-10-16T07:11:42;2.13;;;1.30;;
19434;SDS011;9853;50.848;4.108;2022-10-16T07:13:43;9.63;;;1.60;;
19434;SDS011;9853;50.848;4.108;2022-10-16T07:15:44;5.88;;;1.65;;
19434;SDS011;9853;50.848;4.108;2022-10-16T07:17:45;4.03;;;1.40;;
19434;SDS011;9853;50.848;4.108;2022-10-16T07:19:45;2.65;;;1.33;;
19434;SDS011;9853;50.848;4.108;2022-10-16T07:21:46;3.83;;;1.60;;
19434;SDS011;9853;50.848;4.108;2022-10-16T07:23:50;4.43;;;1.40;;
19434;SDS011;9853;50.848;4.108;2022-10-16T07:25:54;4.80;;;1.55;;
19434;SDS011;9853;50.848;4.108;2022-10-16T07:27:56;6.15;;;1.50;;
19434;SDS011;9853;50.848;4.108;2022-10-16T07:29:56;5.07;;;1.38;;
19434;SDS011;9853;50.848;4.108;2022-10-16T07:31:57;8.30;;;1.35;;
19434;SDS011;9853;50.848;4.108;2022-10-16T07:33:58;7.72;;;1.38;;
19434;SDS011;9853;50.848;4.108;2022-10-16T07:36:00;5.53;;;1.50;;
19434;SDS011;9853;50.848;4.108;2022-10-16T07:38:01;4.43;;;1.30;;
19434;SDS011;9853;50.848;4.108;2022-10-16T07:40:02;3.42;;;1.30;;
19434;SDS011;9853;50.848;4.108;2022-10-16T07:42:03;6.13;;;1.60;;
19434;SDS011;9853;50.848;4.108;2022-10-16T07:44:04;3.50;;;1.60;;
19434;SDS011;9853;50.848;4.108;2022-10-16T07:46:05;5.03;;;1.25;;
19434;SDS011;9853;50.848;4.108;2022-10-16T07:48:05;4.93;;;1.20;;
19434;SDS011;9853;50.848;4.108;2022-10-16T07:50:06;6.38;;;1.40;;
19434;SDS011;9853;50.848;4.108;2022-10-16T07:52:07;6.15;;;1.25;;
19434;SDS011;9853;50.848;4.108;2022-10-16T07:54:08;3.92;;;0.98;;
19434;SDS011;9853;50.848;4.108;2022-10-16T07:56:10;2.83;;;1.00;;
19434;SDS011;9853;50.848;4.108;2022-10-16T07:58:11;2.80;;;0.80;;
19434;SDS011;9853;50.848;4.108;2022-10-16T08:00:12;1.77;;;0.90;;
19434;SDS011;9853;50.848;4.108;2022-10-16T08:02:13;4.22;;;0.90;;
19434;SDS011;9853;50.848;4.108;2022-10-16T08:04:14;3.72;;;0.82;;
19434;SDS011;9853;50.848;4.108;2022-10-16T08:06:15;6.32;;;1.17;;
19434;SDS011;9853;50.848;4.108;2022-10-16T08:08:18;2.47;;;0.75;;
19434;SDS011;9853;50.848;4.108;2022-10-16T08:10:19;4.10;;;0.90;;
19434;SDS011;9853;50.848;4.108;2022-10-16T08:12:21;3.13;;;1.00;;
19434;SDS011;9853;50.848;4.108;2022-10-16T08:14:22;2.97;;;1.08;;
19434;SDS011;9853;50.848;4.108;2022-10-16T08:16:22;2.42;;;0.93;;
19434;SDS011;9853;50.848;4.108;2022-10-16T08:18:23;5.88;;;0.77;;
19434;SDS011;9853;50.848;4.108;2022-10-16T08:20:24;3.40;;;0.90;;
19434;SDS011;9853;50.848;4.108;2022-10-16T08:22:25;4.97;;;0.90;;
19434;SDS011;9853;50.848;4.108;2022-10-16T08:24:26;6.53;;;1.08;;
19434;SDS011;9853;50.848;4.108;2022-10-16T08:26:27;3.70;;;0.95;;
19434;SDS011;9853;50.848;4.108;2022-10-16T08:28:28;5.45;;;1.00;;
19434;SDS011;9853;50.848;4.108;2022-10-16T08:30:29;3.40;;;0.70;;
19434;SDS011;9853;50.848;4.108;2022-10-16T08:32:29;6.55;;;0.80;;
19434;SDS011;9853;50.848;4.108;2022-10-16T08:34:30;6.93;;;0.95;;
19434;SDS011;9853;50.848;4.108;2022-10-16T08:36:31;2.70;;;0.85;;
19434;SDS011;9853;50.848;4.108;2022-10-16T08:38:31;2.10;;;0.85;;
19434;SDS011;9853;50.848;4.108;2022-10-16T08:40:33;2.63;;;1.00;;
19434;SDS011;9853;50.848;4.108;2022-10-16T08:45:02;4.78;;;0.95;;
19434;SDS011;9853;50.848;4.108;2022-10-16T08:47:18;5.82;;;1.05;;
19434;SDS011;9853;50.848;4.108;2022-10-16T08:49:20;8.13;;;1.20;;
19434;SDS011;9853;50.848;4.108;2022-10-16T08:51:24;4.75;;;0.98;;
19434;SDS011;9853;50.848;4.108;2022-10-16T08:53:36;6.53;;;1.10;;
19434;SDS011;9853;50.848;4.108;2022-10-16T08:55:51;5.88;;;1.20;;
19434;SDS011;9853;50.848;4.108;2022-10-16T08:57:53;5.70;;;0.98;;
19434;SDS011;9853;50.848;4.108;2022-10-16T08:59:54;5.00;;;0.95;;
19434;SDS011;9853;50.848;4.108;2022-10-16T09:02:00;5.13;;;1.00;;
19434;SDS011;9853;50.848;4.108;2022-10-16T09:08:58;4.72;;;1.10;;
19434;SDS011;9853;50.848;4.108;2022-10-16T09:11:06;3.42;;;0.73;;
19434;SDS011;9853;50.848;4.108;2022-10-16T09:13:26;5.20;;;0.88;;
19434;SDS011;9853;50.848;4.108;2022-10-16T09:15:53;5.10;;;1.10;;
19434;SDS011;9853;50.848;4.108;2022-10-16T09:22:31;3.15;;;0.95;;
19434;SDS011;9853;50.848;4.108;2022-10-16T09:24:33;3.33;;;0.90;;
19434;SDS011;9853;50.848;4.108;2022-10-16T09:26:34;6.20;;;1.30;;
19434;SDS011;9853;50.848;4.108;2022-10-16T09:28:34;5.80;;;1.00;;
19434;SDS011;9853;50.848;4.108;2022-10-16T09:30:35;7.55;;;1.23;;
19434;SDS011;9853;50.848;4.108;2022-10-16T09:32:37;8.68;;;1.20;;
19434;SDS011;9853;50.848;4.108;2022-10-16T09:34:53;7.15;;;1.15;;
19434;SDS011;9853;50.848;4.108;2022-10-16T09:36:59;6.25;;;1.10;;
19434;SDS011;9853;50.848;4.108;2022-10-16T09:39:02;6.80;;;1.23;;
19434;SDS011;9853;50.848;4.108;2022-10-16T09:41:17;8.93;;;1.05;;
19434;SDS011;9853;50.848;4.108;2022-10-16T09:43:28;7.43;;;1.17;;
19434;SDS011;9853;50.848;4.108;2022-10-16T09:45:31;8.18;;;1.00;;
19434;SDS011;9853;50.848;4.108;2022-10-16T09:47:32;7.82;;;1.35;;
19434;SDS011;9853;50.848;4.108;2022-10-16T09:49:54;3.28;;;0.90;;
19434;SDS011;9853;50.848;4.108;2022-10-16T09:52:04;5.07;;;1.00;;
19434;SDS011;9853;50.848;4.108;2022-10-16T09:56:22;4.68;;;0.95;;
19434;SDS011;9853;50.848;4.108;2022-10-16T09:58:33;10.82;;;1.20;;
19434;SDS011;9853;50.848;4.108;2022-10-16T10:00:34;5.55;;;1.02;;
19434;SDS011;9853;50.848;4.108;2022-10-16T10:02:35;5.32;;;1.15;;
19434;SDS011;9853;50.848;4.108;2022-10-16T10:04:42;4.65;;;0.98;;
19434;SDS011;9853;50.848;4.108;2022-10-16T10:06:50;4.07;;;0.88;;
19434;SDS011;9853;50.848;4.108;2022-10-16T10:08:56;4.30;;;1.00;;
19434;SDS011;9853;50.848;4.108;2022-10-16T10:10:59;3.90;;;1.20;;
19434;SDS011;9853;50.848;4.108;2022-10-16T10:13:00;7.50;;;1.40;;
19434;SDS011;9853;50.848;4.108;2022-10-16T10:15:04;4.93;;;0.93;;
19434;SDS011;9853;50.848;4.108;2022-10-16T10:17:31;8.65;;;1.17;;
19434;SDS011;9853;50.848;4.108;2022-10-16T10:21:47;4.53;;;0.90;;
19434;SDS011;9853;50.848;4.108;2022-10-16T10:23:54;4.53;;;0.85;;
19434;SDS011;9853;50.848;4.108;2022-10-16T10:25:59;9.50;;;1.30;;
19434;SDS011;9853;50.848;4.108;2022-10-16T10:30:47;5.40;;;1.10;;
19434;SDS011;9853;50.848;4.108;2022-10-16T10:33:16;6.90;;;1.08;;
19434;SDS011;9853;50.848;4.108;2022-10-16T10:35:42;7.38;;;1.20;;
19434;SDS011;9853;50.848;4.108;2022-10-16T10:40:34;7.38;;;0.80;;
19434;SDS011;9853;50.848;4.108;2022-10-16T10:49:43;4.05;;;0.82;;
19434;SDS011;9853;50.848;4.108;2022-10-16T10:51:50;6.05;;;1.02;;
19434;SDS011;9853;50.848;4.108;2022-10-16T10:53:56;5.97;;;0.90;;
19434;SDS011;9853;50.848;4.108;2022-10-16T11:02:50;7.28;;;1.15;;
19434;SDS011;9853;50.848;4.108;2022-10-16T11:05:27;5.60;;;0.80;;
19434;SDS011;9853;50.848;4.108;2022-10-16T11:07:41;4.22;;;0.80;;
19434;SDS011;9853;50.848;4.108;2022-10-16T11:09:48;4.80;;;0.80;;
19434;SDS011;9853;50.848;4.108;2022-10-16T11:11:58;5.10;;;0.90;;
19434;SDS011;9853;50.848;4.108;2022-10-16T11:16:38;3.05;;;0.65;;
19434;SDS011;9853;50.848;4.108;2022-10-16T11:18:45;6.18;;;1.00;;
19434;SDS011;9853;50.848;4.108;2022-10-16T11:21:00;4.30;;;0.80;;
19434;SDS011;9853;50.848;4.108;2022-10-16T11:23:08;3.22;;;0.88;;
19434;SDS011;9853;50.848;4.108;2022-10-16T11:25:21;7.75;;;1.05;;
19434;SDS011;9853;50.848;4.108;2022-10-16T11:27:30;3.97;;;0.70;;
19434;SDS011;9853;50.848;4.108;2022-10-16T11:29:43;5.47;;;0.98;;
19434;SDS011;9853;50.848;4.108;2022-10-16T11:32:04;5.80;;;0.88;;
19434;SDS011;9853;50.848;4.108;2022-10-16T11:34:17;3.90;;;0.70;;
19434;SDS011;9853;50.848;4.108;2022-10-16T11:38:43;5.05;;;1.02;;
19434;SDS011;9853;50.848;4.108;2022-10-16T11:40:55;3.40;;;0.73;;
19434;SDS011;9853;50.848;4.108;2022-10-16T11:43:02;8.02;;;0.88;;
19434;SDS011;9853;50.848;4.108;2022-10-16T11:49:35;4.97;;;0.95;;
19434;SDS011;9853;50.848;4.108;2022-10-16T11:55:53;5.07;;;0.80;;
19434;SDS011;9853;50.848;4.108;2022-10-16T11:57:57;4.07;;;1.17;;
19434;SDS011;9853;50.848;4.108;2022-10-16T12:00:05;4.75;;;0.70;;
19434;SDS011;9853;50.848;4.108;2022-10-16T12:04:53;3.55;;;0.50;;
19434;SDS011;9853;50.848;4.108;2022-10-16T12:07:27;2.53;;;0.60;;
19434;SDS011;9853;50.848;4.108;2022-10-16T12:09:35;4.05;;;0.60;;
19434;SDS011;9853;50.848;4.108;2022-10-16T12:11:38;4.85;;;0.75;;
19434;SDS011;9853;50.848;4.108;2022-10-16T12:13:40;3.90;;;0.90;;
19434;SDS011;9853;50.848;4.108;2022-10-16T12:15:42;3.60;;;0.60;;
19434;SDS011;9853;50.848;4.108;2022-10-16T12:17:43;6.88;;;1.02;;
19434;SDS011;9853;50.848;4.108;2022-10-16T12:19:44;3.47;;;0.70;;
19434;SDS011;9853;50.848;4.108;2022-10-16T12:21:57;3.95;;;0.70;;
19434;SDS011;9853;50.848;4.108;2022-10-16T12:24:01;2.50;;;0.50;;
19434;SDS011;9853;50.848;4.108;2022-10-16T12:26:04;2.08;;;0.40;;
19434;SDS011;9853;50.848;4.108;2022-10-16T12:30:19;2.78;;;0.60;;
19434;SDS011;9853;50.848;4.108;2022-10-16T12:32:36;4.72;;;0.80;;
19434;SDS011;9853;50.848;4.108;2022-10-16T12:34:41;2.47;;;0.65;;
19434;SDS011;9853;50.848;4.108;2022-10-16T12:36:45;5.15;;;0.75;;
19434;SDS011;9853;50.848;4.108;2022-10-16T12:38:48;5.20;;;0.60;;
19434;SDS011;9853;50.848;4.108;2022-10-16T12:41:06;5.22;;;0.65;;
19434;SDS011;9853;50.848;4.108;2022-10-16T12:43:12;4.57;;;0.73;;
19434;SDS011;9853;50.848;4.108;2022-10-16T12:45:33;4.80;;;0.60;;
19434;SDS011;9853;50.848;4.108;2022-10-16T12:49:37;1.67;;;0.57;;
19434;SDS011;9853;50.848;4.108;2022-10-16T12:51:48;3.15;;;0.70;;
19434;SDS011;9853;50.848;4.108;2022-10-16T12:54:02;6.10;;;0.50;;
19434;SDS011;9853;50.848;4.108;2022-10-16T12:56:22;2.58;;;0.47;;
19434;SDS011;9853;50.848;4.108;2022-10-16T13:17:11;4.70;;;0.80;;
19434;SDS011;9853;50.848;4.108;2022-10-16T13:19:29;11.02;;;0.60;;
19434;SDS011;9853;50.848;4.108;2022-10-16T13:26:48;4.32;;;0.60;;
19434;SDS011;9853;50.848;4.108;2022-10-16T13:29:09;6.95;;;0.90;;
19434;SDS011;9853;50.848;4.108;2022-10-16T13:31:22;4.68;;;0.68;;
19434;SDS011;9853;50.848;4.108;2022-10-16T13:33:29;2.72;;;0.82;;
19434;SDS011;9853;50.848;4.108;2022-10-16T13:35:46;2.08;;;0.60;;
19434;SDS011;9853;50.848;4.108;2022-10-16T13:38:02;1.90;;;0.43;;
19434;SDS011;9853;50.848;4.108;2022-10-16T13:40:18;4.43;;;0.60;;
19434;SDS011;9853;50.848;4.108;2022-10-16T13:42:24;3.03;;;0.70;;
19434;SDS011;9853;50.848;4.108;2022-10-16T13:44:27;3.92;;;0.60;;
19434;SDS011;9853;50.848;4.108;2022-10-16T13:46:30;3.65;;;0.88;;
19434;SDS011;9853;50.848;4.108;2022-10-16T13:48:34;7.45;;;0.73;;
19434;SDS011;9853;50.848;4.108;2022-10-16T13:50:35;5.13;;;0.60;;
19434;SDS011;9853;50.848;4.108;2022-10-16T13:52:35;3.53;;;0.60;;
19434;SDS011;9853;50.848;4.108;2022-10-16T13:54:38;4.72;;;0.70;;
19434;SDS011;9853;50.848;4.108;2022-10-16T13:56:38;5.75;;;0.77;;
19434;SDS011;9853;50.848;4.108;2022-10-16T13:58:40;4.43;;;0.80;;
19434;SDS011;9853;50.848;4.108;2022-10-16T14:00:52;5.57;;;0.80;;
19434;SDS011;9853;50.848;4.108;2022-10-16T14:03:11;2.67;;;0.68;;
19434;SDS011;9853;50.848;4.108;2022-10-16T14:05:14;3.72;;;0.90;;
19434;SDS011;9853;50.848;4.108;2022-10-16T14:07:20;6.78;;;0.82;;
19434;SDS011;9853;50.848;4.108;2022-10-16T14:09:27;3.03;;;0.70;;
19434;SDS011;9853;50.848;4.108;2022-10-16T14:11:29;1.95;;;0.60;;
19434;SDS011;9853;50.848;4.108;2022-10-16T14:13:37;3.25;;;0.80;;
19434;SDS011;9853;50.848;4.108;2022-10-16T14:15:45;4.35;;;1.08;;
19434;SDS011;9853;50.848;4.108;2022-10-16T14:17:50;4.15;;;0.80;;
19434;SDS011;9853;50.848;4.108;2022-10-16T14:19:53;4.20;;;0.70;;
19434;SDS011;9853;50.848;4.108;2022-10-16T14:21:55;2.75;;;0.60;;